createdAt,value
2018-07-10T00:02:29.376Z,16.90
2018-07-10T00:05:11.070Z,16.90
2018-07-10T00:07:52.231Z,16.80
2018-07-10T00:10:31.258Z,16.70
2018-07-10T00:12:59.474Z,16.70
2018-07-10T00:15:27.600Z,16.80
2018-07-10T00:17:55.703Z,16.80
2018-07-10T00:22:51.850Z,16.70
2018-07-10T00:25:19.967Z,16.60
2018-07-10T00:27:48.054Z,16.70
2018-07-10T00:30:16.183Z,16.70
2018-07-10T00:32:44.340Z,16.80
2018-07-10T00:35:12.516Z,16.70
2018-07-10T00:37:45.555Z,16.80
2018-07-10T00:40:13.623Z,16.70
2018-07-10T00:42:41.696Z,16.70
2018-07-10T00:45:09.767Z,16.70
2018-07-10T00:47:37.850Z,16.70
2018-07-10T00:50:05.964Z,16.50
2018-07-10T00:52:34.661Z,16.40
2018-07-10T00:55:03.142Z,16.40
2018-07-10T01:00:01.003Z,16.50
2018-07-10T01:02:29.233Z,16.60
2018-07-10T01:04:57.368Z,16.50
2018-07-10T01:07:25.609Z,16.50
2018-07-10T01:09:53.796Z,16.50
2018-07-10T01:12:21.977Z,16.50
2018-07-10T01:14:50.121Z,16.50
2018-07-10T01:17:18.745Z,16.50
2018-07-10T01:19:46.874Z,16.50
2018-07-10T01:22:15.056Z,16.50
2018-07-10T01:24:43.151Z,16.50
2018-07-10T01:27:11.266Z,16.50
2018-07-10T01:29:44.928Z,16.40
2018-07-10T01:32:13.068Z,16.40
2018-07-10T01:34:41.179Z,16.40
2018-07-10T01:37:09.360Z,16.30
2018-07-10T01:39:37.516Z,16.40
2018-07-10T01:42:05.741Z,16.30
2018-07-10T01:44:33.954Z,16.30
2018-07-10T01:47:02.153Z,16.30
2018-07-10T01:49:30.311Z,16.30
2018-07-10T01:51:58.452Z,16.30
2018-07-10T01:54:26.617Z,16.20
2018-07-10T01:59:22.748Z,16.20
2018-07-10T02:01:50.885Z,16.20
2018-07-10T02:04:19.168Z,16.20
2018-07-10T02:06:47.427Z,16.20
2018-07-10T02:09:15.601Z,16.10
2018-07-10T02:11:43.724Z,16.10
2018-07-10T02:14:11.874Z,16.10
2018-07-10T02:16:40.053Z,16.10
2018-07-10T02:19:08.254Z,16.00
2018-07-10T02:21:36.446Z,15.90
2018-07-10T02:24:04.563Z,15.90
2018-07-10T02:26:32.774Z,15.70
2018-07-10T02:29:01.003Z,15.70
2018-07-10T02:31:29.284Z,15.70
2018-07-10T02:33:57.494Z,15.70
2018-07-10T02:36:25.755Z,15.70
2018-07-10T02:38:59.535Z,15.70
2018-07-10T02:41:27.727Z,15.80
2018-07-10T02:43:58.823Z,15.70
2018-07-10T02:46:27.927Z,15.50
2018-07-10T02:48:57.882Z,15.50
2018-07-10T02:51:25.974Z,15.40
2018-07-10T02:53:54.179Z,15.50
2018-07-10T02:56:22.857Z,15.50
2018-07-10T02:58:51.373Z,15.60
2018-07-10T03:01:19.655Z,15.60
2018-07-10T03:03:48.813Z,15.60
2018-07-10T03:06:16.991Z,15.60
2018-07-10T03:08:45.326Z,15.70
2018-07-10T03:11:13.450Z,15.70
2018-07-10T03:13:42.099Z,15.60
2018-07-10T03:16:10.521Z,15.60
2018-07-10T03:18:38.662Z,15.60
2018-07-10T03:21:06.743Z,15.60
2018-07-10T03:23:34.819Z,15.60
2018-07-10T03:26:02.935Z,15.60
2018-07-10T03:28:31.044Z,15.60
2018-07-10T03:30:59.187Z,15.60
2018-07-10T03:33:27.321Z,15.60
2018-07-10T03:35:55.530Z,15.50
2018-07-10T03:38:24.058Z,15.50
2018-07-10T03:40:52.254Z,15.50
2018-07-10T03:43:20.407Z,15.40
2018-07-10T03:45:48.836Z,15.40
2018-07-10T03:48:17.042Z,15.40
2018-07-10T03:50:45.148Z,15.40
2018-07-10T03:53:13.273Z,15.40
2018-07-10T03:55:41.432Z,15.40
2018-07-10T03:58:09.779Z,15.40
2018-07-10T04:00:37.955Z,15.40
2018-07-10T04:03:06.126Z,15.40
2018-07-10T04:05:34.322Z,15.40
2018-07-10T04:08:04.549Z,15.40
2018-07-10T04:10:35.151Z,15.40
2018-07-10T04:13:14.180Z,15.40
2018-07-10T04:15:43.623Z,15.30
2018-07-10T04:18:14.483Z,15.30
2018-07-10T04:24:17.744Z,15.40
2018-07-10T04:26:55.518Z,15.40
2018-07-10T04:29:28.570Z,15.40
2018-07-10T04:31:59.399Z,15.40
2018-07-10T04:34:29.302Z,15.40
2018-07-10T04:37:01.940Z,15.40
2018-07-10T04:39:30.491Z,15.50
2018-07-10T04:42:04.778Z,15.50
2018-07-10T04:44:33.575Z,15.50
2018-07-10T04:47:09.004Z,15.50
2018-07-10T04:49:42.826Z,15.40
2018-07-10T04:52:17.338Z,15.50
2018-07-10T04:54:59.117Z,15.40
2018-07-10T04:57:32.409Z,15.40
2018-07-10T05:00:03.894Z,15.40
2018-07-10T05:02:32.462Z,15.50
2018-07-10T05:05:00.641Z,15.40
2018-07-10T05:07:29.240Z,15.50
2018-07-10T05:09:58.498Z,15.60
2018-07-10T05:12:26.612Z,15.60
2018-07-10T05:14:56.042Z,15.70
2018-07-10T05:17:24.163Z,15.80
2018-07-10T05:19:52.315Z,15.80
2018-07-10T05:22:20.923Z,15.90
2018-07-10T05:24:49.063Z,15.90
2018-07-10T05:27:17.155Z,15.90
2018-07-10T05:32:13.855Z,16.00
2018-07-10T05:34:41.976Z,16.10
2018-07-10T05:37:12.256Z,16.10
2018-07-10T05:39:43.354Z,16.10
2018-07-10T05:42:11.785Z,16.10
2018-07-10T05:44:39.929Z,16.10
2018-07-10T05:47:08.377Z,16.20
2018-07-10T05:49:38.768Z,16.20
2018-07-10T05:52:06.931Z,16.40
2018-07-10T05:54:37.543Z,16.30
2018-07-10T05:57:06.408Z,16.20
2018-07-10T05:59:34.601Z,16.10
2018-07-10T06:04:30.706Z,16.30
2018-07-10T06:06:59.606Z,16.40
2018-07-10T06:09:27.776Z,16.30
2018-07-10T06:11:55.960Z,16.20
2018-07-10T06:14:24.156Z,16.40
2018-07-10T06:16:52.893Z,16.40
2018-07-10T06:19:21.140Z,16.40
2018-07-10T06:21:49.902Z,16.30
2018-07-10T06:24:26.992Z,16.30
2018-07-10T06:27:02.101Z,16.30
2018-07-10T06:29:40.351Z,16.40
2018-07-10T06:32:08.611Z,16.40
2018-07-10T06:34:38.177Z,16.30
2018-07-10T06:37:08.314Z,16.40
2018-07-10T06:39:36.465Z,16.50
2018-07-10T06:42:06.440Z,16.60
2018-07-10T06:44:35.505Z,16.70
2018-07-10T06:47:09.277Z,16.70
2018-07-10T06:49:37.751Z,16.70
2018-07-10T06:52:11.361Z,16.70
2018-07-10T06:54:51.613Z,16.80
2018-07-10T06:57:31.831Z,16.90
2018-07-10T07:00:02.570Z,17.30
2018-07-10T07:02:31.089Z,17.50
2018-07-10T07:05:00.179Z,17.70
2018-07-10T07:07:28.649Z,17.80
2018-07-10T07:09:56.855Z,17.90
2018-07-10T07:12:25.008Z,17.70
2018-07-10T07:14:53.295Z,17.60
2018-07-10T07:17:21.794Z,17.80
2018-07-10T07:19:49.995Z,17.90
2018-07-10T07:22:18.141Z,17.90
2018-07-10T07:24:46.250Z,17.90
2018-07-10T07:27:14.353Z,17.70
2018-07-10T07:29:42.595Z,17.80
2018-07-10T07:32:10.833Z,17.80
2018-07-10T07:34:39.051Z,17.70
2018-07-10T07:37:07.824Z,17.80
2018-07-10T07:39:36.076Z,17.80
2018-07-10T07:42:04.359Z,17.80
2018-07-10T07:44:32.470Z,17.90
2018-07-10T07:47:00.567Z,17.90
2018-07-10T07:49:29.563Z,17.90
2018-07-10T07:51:57.932Z,17.90
2018-07-10T07:54:26.012Z,17.80
2018-07-10T07:56:54.146Z,17.90
2018-07-10T07:59:22.311Z,18.10
2018-07-10T08:01:50.653Z,18.70
2018-07-10T08:04:19.063Z,19.30
2018-07-10T08:06:47.407Z,20.00
2018-07-10T08:09:17.014Z,20.70
2018-07-10T08:11:45.512Z,21.00
2018-07-10T08:14:15.226Z,21.00
2018-07-10T08:16:43.502Z,20.20
2018-07-10T08:19:11.791Z,19.20
2018-07-10T08:21:39.871Z,19.10
2018-07-10T08:24:08.073Z,19.20
2018-07-10T08:26:36.172Z,18.90
2018-07-10T08:29:04.514Z,18.90
2018-07-10T08:31:32.664Z,18.90
2018-07-10T08:34:00.861Z,19.10
2018-07-10T08:36:28.883Z,19.00
2018-07-10T08:38:57.010Z,19.00
2018-07-10T08:41:25.893Z,19.10
2018-07-10T08:43:54.436Z,19.30
2018-07-10T08:46:29.815Z,19.20
2018-07-10T08:48:58.301Z,19.00
2018-07-10T08:51:26.485Z,19.20
2018-07-10T08:53:55.168Z,19.00
2018-07-10T08:56:23.322Z,19.10
2018-07-10T08:58:51.507Z,19.20
2018-07-10T09:01:19.778Z,19.40
2018-07-10T09:03:48.118Z,19.60
2018-07-10T09:06:16.495Z,19.80
2018-07-10T09:08:44.596Z,19.60
2018-07-10T09:11:12.689Z,19.50
2018-07-10T09:13:40.935Z,19.60
2018-07-10T09:16:09.039Z,19.30
2018-07-10T09:18:37.134Z,19.20
2018-07-10T09:21:05.305Z,19.30
2018-07-10T09:23:33.764Z,19.40
2018-07-10T09:26:01.928Z,19.70
2018-07-10T09:28:33.474Z,20.00
2018-07-10T09:31:02.119Z,20.20
2018-07-10T09:33:30.253Z,20.10
2018-07-10T09:35:58.377Z,20.00
2018-07-10T09:38:26.479Z,20.20
2018-07-10T09:40:55.464Z,20.10
2018-07-10T09:43:25.322Z,20.00
2018-07-10T09:45:53.507Z,19.90
2018-07-10T09:48:21.625Z,19.90
2018-07-10T09:50:49.714Z,20.20
2018-07-10T09:53:18.004Z,20.40
2018-07-10T09:55:46.152Z,20.90
2018-07-10T09:58:14.321Z,21.40
2018-07-10T10:01:03.191Z,21.60
2018-07-10T10:03:32.162Z,21.90
2018-07-10T10:06:00.358Z,22.00
2018-07-10T10:08:28.596Z,22.00
2018-07-10T10:10:56.691Z,21.90
2018-07-10T10:13:24.775Z,21.90
2018-07-10T10:15:52.878Z,21.50
2018-07-10T10:18:20.997Z,21.60
2018-07-10T10:20:49.472Z,21.70
2018-07-10T10:23:17.629Z,21.60
2018-07-10T10:25:49.294Z,21.30
2018-07-10T10:28:17.674Z,21.30
2018-07-10T10:30:45.980Z,21.00
2018-07-10T10:33:14.168Z,21.10
2018-07-10T10:35:42.348Z,21.30
2018-07-10T10:38:10.413Z,21.30
2018-07-10T10:40:39.795Z,21.60
2018-07-10T10:43:10.001Z,21.80
2018-07-10T10:45:40.104Z,21.90
2018-07-10T10:50:37.439Z,21.90
2018-07-10T10:53:06.050Z,21.80
2018-07-10T10:55:35.038Z,21.80
2018-07-10T10:58:03.306Z,21.70
2018-07-10T11:00:31.702Z,21.80
2018-07-10T11:02:59.800Z,21.70
2018-07-10T11:05:28.620Z,21.70
2018-07-10T11:07:57.870Z,21.70
2018-07-10T11:10:25.999Z,21.80
2018-07-10T11:12:55.202Z,21.70
2018-07-10T11:15:24.650Z,21.60
2018-07-10T11:18:03.057Z,21.70
2018-07-10T11:20:41.919Z,21.70
2018-07-10T11:23:10.549Z,21.70
2018-07-10T11:25:39.956Z,21.80
2018-07-10T11:28:10.123Z,21.80
2018-07-10T11:30:38.689Z,21.70
2018-07-10T11:33:07.904Z,21.30
2018-07-10T11:35:36.578Z,21.50
2018-07-10T11:38:07.416Z,21.50
2018-07-10T11:40:36.386Z,21.60
2018-07-10T11:43:05.867Z,21.40
2018-07-10T11:45:34.022Z,21.30
2018-07-10T11:48:02.183Z,21.10
2018-07-10T11:50:30.355Z,20.90
2018-07-10T11:52:58.467Z,20.80
2018-07-10T11:55:26.544Z,20.80
2018-07-10T11:57:54.615Z,20.80
2018-07-10T12:00:22.863Z,20.80
2018-07-10T12:02:51.136Z,20.90
2018-07-10T12:05:20.363Z,21.10
2018-07-10T12:07:52.906Z,21.10
2018-07-10T12:10:23.049Z,21.50
2018-07-10T12:12:52.122Z,21.60
2018-07-10T12:15:20.766Z,21.90
2018-07-10T12:17:50.720Z,22.10
2018-07-10T12:20:22.230Z,22.40
2018-07-10T12:22:50.397Z,22.40
2018-07-10T12:25:25.227Z,22.30
2018-07-10T12:27:53.427Z,22.30
2018-07-10T12:30:21.571Z,22.30
2018-07-10T12:32:49.769Z,22.40
2018-07-10T12:35:17.965Z,22.40
2018-07-10T12:37:46.108Z,22.20
2018-07-10T12:40:14.252Z,22.20
2018-07-10T12:42:42.343Z,22.20
2018-07-10T12:45:11.056Z,22.20
2018-07-10T12:47:39.190Z,22.10
2018-07-10T12:50:07.471Z,22.00
2018-07-10T12:55:03.622Z,21.80
2018-07-10T12:57:47.824Z,21.60
2018-07-10T13:00:15.976Z,21.40
2018-07-10T13:02:48.532Z,21.30
2018-07-10T13:05:18.170Z,21.30
2018-07-10T13:07:46.392Z,21.40
2018-07-10T13:10:14.793Z,21.70
2018-07-10T13:12:42.879Z,22.00
2018-07-10T13:15:10.978Z,22.20
2018-07-10T13:17:40.740Z,22.20
2018-07-10T13:20:08.963Z,21.80
2018-07-10T13:22:37.118Z,21.60
2018-07-10T13:25:05.495Z,21.70
2018-07-10T13:27:33.733Z,21.60
2018-07-10T13:30:01.835Z,21.60
2018-07-10T13:32:30.251Z,21.30
2018-07-10T13:34:58.352Z,21.30
2018-07-10T13:37:27.992Z,21.30
2018-07-10T13:39:59.797Z,21.10
2018-07-10T13:42:52.315Z,21.00
2018-07-10T13:45:20.921Z,20.90
2018-07-10T13:47:49.217Z,20.90
2018-07-10T13:50:22.126Z,20.90
2018-07-10T13:52:50.806Z,20.80
2018-07-10T13:55:18.957Z,21.00
2018-07-10T13:58:00.056Z,21.20
2018-07-10T14:00:28.231Z,21.20
2018-07-10T14:02:56.344Z,21.40
2018-07-10T14:05:25.335Z,21.50
2018-07-10T14:07:53.754Z,21.50
2018-07-10T14:10:22.554Z,21.60
2018-07-10T14:12:50.697Z,21.60
2018-07-10T14:15:18.928Z,21.50
2018-07-10T14:17:47.525Z,21.50
2018-07-10T14:20:16.515Z,21.40
2018-07-10T14:22:44.725Z,21.30
2018-07-10T14:25:12.883Z,21.20
2018-07-10T14:27:40.999Z,21.30
2018-07-10T14:30:09.093Z,21.20
2018-07-10T14:32:37.195Z,21.20
2018-07-10T14:35:05.321Z,21.20
2018-07-10T14:37:33.440Z,21.00
2018-07-10T14:40:01.942Z,20.90
2018-07-10T14:42:30.227Z,20.60
2018-07-10T14:45:00.491Z,20.70
2018-07-10T14:47:28.675Z,20.70
2018-07-10T14:49:56.812Z,20.70
2018-07-10T14:52:24.948Z,20.70
2018-07-10T14:54:53.097Z,20.60
2018-07-10T14:57:21.289Z,20.50
2018-07-10T14:59:49.440Z,20.40
2018-07-10T15:02:17.580Z,20.30
2018-07-10T15:04:45.659Z,20.20
2018-07-10T15:07:13.849Z,20.10
2018-07-10T15:09:41.951Z,20.20
2018-07-10T15:12:10.052Z,20.20
2018-07-10T15:14:38.280Z,20.30
2018-07-10T15:19:40.045Z,20.20
2018-07-10T15:22:08.377Z,20.30
2018-07-10T15:24:36.560Z,20.20
2018-07-10T15:27:04.947Z,20.20
2018-07-10T15:29:33.124Z,20.30
2018-07-10T15:32:01.285Z,20.20
2018-07-10T15:34:29.424Z,20.20
2018-07-10T15:36:57.499Z,20.20
2018-07-10T15:39:25.638Z,20.20
2018-07-10T15:41:54.103Z,20.10
2018-07-10T15:44:22.215Z,20.10
2018-07-10T15:46:50.581Z,20.10
2018-07-10T15:49:19.014Z,20.10
2018-07-10T15:51:47.233Z,19.90
2018-07-10T15:54:15.413Z,19.90
2018-07-10T15:56:43.552Z,19.90
2018-07-10T15:59:11.867Z,19.90
2018-07-10T16:01:39.980Z,19.80
2018-07-10T16:04:08.421Z,19.80
2018-07-10T16:06:37.376Z,19.90
2018-07-10T16:09:08.497Z,20.00
2018-07-10T16:11:37.063Z,20.10
2018-07-10T16:14:05.327Z,20.10
2018-07-10T16:16:34.116Z,20.10
2018-07-10T16:19:06.094Z,20.10
2018-07-10T16:21:51.502Z,20.20
2018-07-10T16:24:20.683Z,20.20
2018-07-10T16:26:48.792Z,20.10
2018-07-10T16:29:18.912Z,20.10
2018-07-10T16:31:48.170Z,20.10
2018-07-10T16:34:16.304Z,20.10
2018-07-10T16:36:44.420Z,20.00
2018-07-10T16:39:12.539Z,20.10
2018-07-10T16:41:46.188Z,20.10
2018-07-10T16:44:14.406Z,19.90
2018-07-10T16:46:47.701Z,19.90
2018-07-10T16:49:26.876Z,19.90
2018-07-10T16:52:11.916Z,19.80
2018-07-10T16:54:40.031Z,19.80
2018-07-10T16:57:08.469Z,19.70
2018-07-10T16:59:36.735Z,19.60
2018-07-10T17:02:04.918Z,19.60
2018-07-10T17:04:33.187Z,19.40
2018-07-10T17:07:01.337Z,19.40
2018-07-10T17:09:29.584Z,19.40
2018-07-10T17:11:57.892Z,19.30
2018-07-10T17:14:26.025Z,19.30
2018-07-10T17:16:54.120Z,19.30
2018-07-10T17:19:23.029Z,19.20
2018-07-10T17:21:51.211Z,19.20
2018-07-10T17:24:19.393Z,19.20
2018-07-10T17:26:47.554Z,19.10
2018-07-10T17:29:15.804Z,19.10
2018-07-10T17:31:43.935Z,18.90
2018-07-10T17:34:12.304Z,18.90
2018-07-10T17:36:40.553Z,18.80
2018-07-10T17:39:08.686Z,18.80
2018-07-10T17:41:38.025Z,18.80
2018-07-10T17:44:08.921Z,18.80
2018-07-10T17:46:37.441Z,18.80
2018-07-10T17:49:05.577Z,18.80
2018-07-10T17:51:33.898Z,18.80
2018-07-10T17:54:02.384Z,18.70
2018-07-10T17:56:30.759Z,18.60
2018-07-10T17:58:59.749Z,18.50
2018-07-10T18:01:27.951Z,18.50
2018-07-10T18:03:56.132Z,18.50
2018-07-10T18:06:24.223Z,18.50
2018-07-10T18:08:52.370Z,18.50
2018-07-10T18:11:20.746Z,18.50
2018-07-10T18:13:48.931Z,18.50
2018-07-10T18:16:17.159Z,18.50
2018-07-10T18:18:45.236Z,18.50
2018-07-10T18:21:13.421Z,18.50
2018-07-10T18:23:41.939Z,18.50
2018-07-10T18:26:10.055Z,18.40
2018-07-10T18:28:38.304Z,18.40
2018-07-10T18:31:06.418Z,18.40
2018-07-10T18:33:34.542Z,18.40
2018-07-10T18:36:02.648Z,18.30
2018-07-10T18:38:30.802Z,18.30
2018-07-10T18:40:58.914Z,18.30
2018-07-10T18:43:27.039Z,18.30
2018-07-10T18:45:55.467Z,18.40
2018-07-10T18:48:25.386Z,18.30
2018-07-10T18:50:53.437Z,18.30
2018-07-10T18:53:21.574Z,18.20
2018-07-10T18:55:50.187Z,18.20
2018-07-10T18:58:37.581Z,18.20
2018-07-10T19:01:12.239Z,18.20
2018-07-10T19:03:42.557Z,18.10
2018-07-10T19:06:12.659Z,18.10
2018-07-10T19:08:42.176Z,18.00
2018-07-10T19:11:12.753Z,17.90
2018-07-10T19:13:40.931Z,17.80
2018-07-10T19:16:09.120Z,17.90
2018-07-10T19:18:37.314Z,17.90
2018-07-10T19:23:46.168Z,18.00
2018-07-10T19:26:14.999Z,17.90
2018-07-10T19:28:43.764Z,17.70
2018-07-10T19:31:15.024Z,17.60
2018-07-10T19:33:44.863Z,17.50
2018-07-10T19:36:13.264Z,17.50
2018-07-10T19:38:41.412Z,17.60
2018-07-10T19:41:09.823Z,17.60
2018-07-10T19:46:05.881Z,17.50
2018-07-10T19:48:34.826Z,17.50
2018-07-10T19:51:03.008Z,17.50
2018-07-10T19:53:31.261Z,17.50
2018-07-10T19:56:00.074Z,17.50
2018-07-10T19:58:35.443Z,17.50
2018-07-10T20:01:12.060Z,17.60
2018-07-10T20:03:46.423Z,17.60
2018-07-10T20:06:22.753Z,17.70
2018-07-10T20:08:50.855Z,17.70
2018-07-10T20:11:23.853Z,17.70
2018-07-10T20:13:52.142Z,17.70
2018-07-10T20:16:29.951Z,17.60
2018-07-10T20:19:08.552Z,17.60
2018-07-10T20:21:49.426Z,17.60
2018-07-10T20:24:20.064Z,17.50
2018-07-10T20:31:37.846Z,17.50
2018-07-10T20:34:21.068Z,17.40
2018-07-10T20:36:53.357Z,17.40
2018-07-10T20:39:26.630Z,17.40
2018-07-10T20:41:54.765Z,17.40
2018-07-10T20:44:22.957Z,17.40
2018-07-10T20:46:58.981Z,17.40
2018-07-10T20:49:36.246Z,17.40
2018-07-10T20:52:06.631Z,17.40
2018-07-10T20:54:41.500Z,17.40
2018-07-10T20:57:26.777Z,17.30
2018-07-10T21:00:02.549Z,17.30
2018-07-10T21:02:37.741Z,17.30
2018-07-10T21:05:08.269Z,17.30
2018-07-10T21:07:45.828Z,17.30
2018-07-10T21:10:22.533Z,17.20
2018-07-10T21:13:06.852Z,17.20
2018-07-10T21:15:40.627Z,17.20
2018-07-10T21:20:51.650Z,17.00
2018-07-10T21:23:43.103Z,16.90
2018-07-10T21:26:22.463Z,16.80
2018-07-10T21:28:53.443Z,16.80
2018-07-10T21:31:30.627Z,16.70
2018-07-10T21:34:06.264Z,16.60
2018-07-10T21:36:45.460Z,16.50
2018-07-10T21:39:16.454Z,16.40
2018-07-10T21:41:55.099Z,16.30
2018-07-10T21:44:31.230Z,16.30
2018-07-10T21:47:12.699Z,16.10
2018-07-10T21:49:47.445Z,16.10
2018-07-10T21:52:15.551Z,16.20
2018-07-10T21:54:43.775Z,16.20
2018-07-10T21:57:14.282Z,16.20
2018-07-10T21:59:49.358Z,16.20
2018-07-10T22:02:17.491Z,16.10
2018-07-10T22:04:46.485Z,16.10
2018-07-10T22:07:15.752Z,16.10
2018-07-10T22:09:44.404Z,16.10
2018-07-10T22:12:16.143Z,16.00
2018-07-10T22:14:44.442Z,16.00
2018-07-10T22:19:50.449Z,15.90
2018-07-10T22:22:19.436Z,15.90
2018-07-10T22:24:48.602Z,15.90
2018-07-10T22:27:16.746Z,15.80
2018-07-10T22:29:50.973Z,15.80
2018-07-10T22:32:24.574Z,15.60
2018-07-10T22:34:52.745Z,15.60
2018-07-10T22:37:20.910Z,15.50
2018-07-10T22:39:49.005Z,15.50
2018-07-10T22:42:17.254Z,15.50
2018-07-10T22:44:47.139Z,15.50
2018-07-10T22:47:16.631Z,15.50
2018-07-10T22:49:45.084Z,15.40
2018-07-10T22:52:13.400Z,15.40
2018-07-10T22:54:41.568Z,15.40
2018-07-10T22:57:10.295Z,15.30
2018-07-10T22:59:38.480Z,15.20
2018-07-10T23:02:07.640Z,15.20
2018-07-10T23:04:35.752Z,15.30
2018-07-10T23:07:03.971Z,15.20
2018-07-10T23:09:32.655Z,15.20
2018-07-10T23:12:00.742Z,15.10
2018-07-10T23:14:29.041Z,14.90
2018-07-10T23:16:57.343Z,15.00
2018-07-10T23:19:25.463Z,15.10
2018-07-10T23:21:53.702Z,15.10
2018-07-10T23:24:21.821Z,15.20
2018-07-10T23:26:49.929Z,15.30
2018-07-10T23:29:21.028Z,15.20
2018-07-10T23:31:49.197Z,15.30
2018-07-10T23:34:19.569Z,15.20
2018-07-10T23:44:18.171Z,15.30
2018-07-10T23:46:58.547Z,15.30
2018-07-10T23:49:27.242Z,15.30
2018-07-10T23:52:07.144Z,15.30
2018-07-10T23:54:35.256Z,15.30
2018-07-10T23:57:03.358Z,15.20
2018-07-10T23:59:31.476Z,15.20
